createdAt,value
2023-03-17T00:00:23.313Z,40
2023-03-17T00:02:56.866Z,32
2023-03-17T00:05:27.235Z,35
2023-03-17T00:08:00.358Z,30
2023-03-17T00:10:32.644Z,32
2023-03-17T00:13:02.925Z,33
2023-03-17T00:15:34.199Z,30
2023-03-17T00:18:04.594Z,39
2023-03-17T00:20:36.413Z,45
2023-03-17T00:23:06.724Z,52
2023-03-17T00:25:37.147Z,44
2023-03-17T00:28:07.486Z,53
2023-03-17T00:30:37.845Z,57
2023-03-17T00:33:10.550Z,55
2023-03-17T00:35:41.511Z,60
2023-03-17T00:38:12.038Z,57
2023-03-17T00:43:15.426Z,70
2023-03-17T00:45:45.647Z,65
2023-03-17T00:48:15.725Z,70
2023-03-17T00:50:46.153Z,63
2023-03-17T00:53:16.358Z,66
2023-03-17T00:55:47.768Z,66
2023-03-17T00:58:18.171Z,61
2023-03-17T01:00:50.347Z,63
2023-03-17T01:03:20.449Z,67
2023-03-17T01:05:51.093Z,66
2023-03-17T01:08:24.858Z,63
2023-03-17T01:10:55.770Z,62
2023-03-17T01:13:25.957Z,77
2023-03-17T01:15:57.392Z,66
2023-03-17T01:18:29.556Z,63
2023-03-17T01:21:00.163Z,60
2023-03-17T01:23:33.157Z,56
2023-03-17T01:26:03.467Z,60
2023-03-17T01:28:34.442Z,65
2023-03-17T01:31:05.128Z,60
2023-03-17T01:33:36.023Z,69
2023-03-17T01:36:06.649Z,64
2023-03-17T01:38:38.033Z,61
2023-03-17T01:41:08.404Z,66
2023-03-17T01:43:38.938Z,71
2023-03-17T01:46:09.879Z,72
2023-03-17T01:48:41.126Z,61
2023-03-17T01:51:11.638Z,64
2023-03-17T01:53:41.065Z,79
2023-03-17T01:56:12.256Z,62
2023-03-17T01:58:43.943Z,59
2023-03-17T02:01:13.413Z,61
2023-03-17T02:03:44.409Z,56
2023-03-17T02:06:15.266Z,49
2023-03-17T02:08:47.153Z,45
2023-03-17T02:11:17.987Z,64
2023-03-17T02:13:49.104Z,65
2023-03-17T02:16:19.780Z,64
2023-03-17T02:18:53.640Z,60
2023-03-17T02:21:25.511Z,41
2023-03-17T02:23:57.724Z,67
2023-03-17T02:26:28.689Z,64
2023-03-17T02:28:59.963Z,67
2023-03-17T02:31:30.906Z,67
2023-03-17T02:34:00.840Z,65
2023-03-17T02:36:32.916Z,69
2023-03-17T02:39:03.619Z,67
2023-03-17T02:41:34.504Z,63
2023-03-17T02:44:05.265Z,62
2023-03-17T02:46:35.893Z,55
2023-03-17T02:49:11.118Z,61
2023-03-17T02:51:43.194Z,67
2023-03-17T02:54:13.289Z,57
2023-03-17T02:56:43.996Z,55
2023-03-17T02:59:14.490Z,57
2023-03-17T03:01:45.347Z,62
2023-03-17T03:04:15.825Z,66
2023-03-17T03:06:46.316Z,64
2023-03-17T03:09:18.192Z,68
2023-03-17T03:11:48.833Z,70
2023-03-17T03:14:19.363Z,61
2023-03-17T03:16:50.231Z,60
2023-03-17T03:19:22.899Z,68
2023-03-17T03:21:53.872Z,71
2023-03-17T03:24:26.435Z,69
2023-03-17T03:29:34.156Z,73
2023-03-17T03:32:04.756Z,72
2023-03-17T03:34:34.037Z,72
2023-03-17T03:37:04.203Z,66
2023-03-17T03:39:36.545Z,59
2023-03-17T03:42:11.430Z,63
2023-03-17T03:44:45.679Z,66
2023-03-17T03:47:15.766Z,67
2023-03-17T03:52:17.457Z,69
2023-03-17T03:54:46.214Z,66
2023-03-17T03:57:16.821Z,68
2023-03-17T03:59:47.785Z,59
2023-03-17T04:02:21.308Z,63
2023-03-17T04:04:52.550Z,55
2023-03-17T04:07:22.687Z,59
2023-03-17T04:09:53.372Z,57
2023-03-17T04:12:27.895Z,67
2023-03-17T04:14:58.661Z,67
2023-03-17T04:17:29.381Z,52
2023-03-17T04:19:59.876Z,54
2023-03-17T04:22:32.646Z,56
2023-03-17T04:25:03.634Z,54
2023-03-17T04:27:33.635Z,44
2023-03-17T04:30:04.254Z,53
2023-03-17T04:32:34.728Z,73
2023-03-17T04:35:04.907Z,69
2023-03-17T04:37:37.050Z,67
2023-03-17T04:40:08.118Z,61
2023-03-17T04:42:38.264Z,83
2023-03-17T04:45:08.931Z,83
2023-03-17T04:47:39.610Z,91
2023-03-17T04:50:10.403Z,81
2023-03-17T04:52:41.686Z,79
2023-03-17T04:55:12.511Z,69
2023-03-17T04:57:43.788Z,81
2023-03-17T05:00:15.748Z,69
2023-03-17T05:02:47.362Z,64
2023-03-17T05:05:17.890Z,65
2023-03-17T05:07:50.290Z,56
2023-03-17T05:10:20.924Z,66
2023-03-17T05:12:52.728Z,64
2023-03-17T05:15:22.891Z,68
2023-03-17T05:17:53.629Z,69
2023-03-17T05:20:24.662Z,69
2023-03-17T05:22:54.985Z,68
2023-03-17T05:25:23.868Z,75
2023-03-17T05:27:54.054Z,64
2023-03-17T05:30:24.417Z,69
2023-03-17T05:32:56.516Z,64
2023-03-17T05:35:36.509Z,71
2023-03-17T05:38:07.980Z,74
2023-03-17T05:40:41.212Z,69
2023-03-17T05:43:12.384Z,61
2023-03-17T05:45:42.806Z,60
2023-03-17T05:48:13.983Z,60
2023-03-17T05:50:46.263Z,56
2023-03-17T05:53:16.832Z,64
2023-03-17T05:55:47.467Z,52
2023-03-17T05:58:22.461Z,70
2023-03-17T06:00:52.824Z,58
2023-03-17T06:03:26.639Z,52
2023-03-17T06:05:58.318Z,56
2023-03-17T06:08:30.014Z,47
2023-03-17T06:11:00.778Z,55
2023-03-17T06:13:33.919Z,52
2023-03-17T06:16:04.550Z,47
2023-03-17T06:18:35.229Z,42
2023-03-17T06:21:05.888Z,64
2023-03-17T06:23:40.459Z,50
2023-03-17T06:26:11.320Z,53
2023-03-17T06:28:45.892Z,47
2023-03-17T06:31:16.836Z,52
2023-03-17T06:33:48.092Z,53
2023-03-17T06:36:19.266Z,51
2023-03-17T06:38:50.024Z,45
2023-03-17T06:41:20.633Z,46
2023-03-17T06:43:51.918Z,52
2023-03-17T06:46:21.715Z,46
2023-03-17T06:48:52.157Z,57
2023-03-17T06:51:22.595Z,51
2023-03-17T06:53:58.439Z,56
2023-03-17T06:56:30.412Z,54
2023-03-17T06:59:03.280Z,35
2023-03-17T07:01:35.937Z,57
2023-03-17T07:04:06.768Z,55
2023-03-17T07:06:41.193Z,59
2023-03-17T07:09:13.940Z,51
2023-03-17T07:11:44.339Z,53
2023-03-17T07:14:18.214Z,58
2023-03-17T07:16:49.923Z,66
2023-03-17T07:19:18.987Z,62
2023-03-17T07:21:49.492Z,53
2023-03-17T07:24:20.162Z,38
2023-03-17T07:26:52.862Z,49
2023-03-17T07:29:24.661Z,44
2023-03-17T07:31:55.002Z,53
2023-03-17T07:34:25.942Z,54
2023-03-17T07:36:56.952Z,44
2023-03-17T07:39:27.469Z,43
2023-03-17T07:41:57.841Z,43
2023-03-17T07:44:29.415Z,50
2023-03-17T07:46:59.888Z,65
2023-03-17T07:49:41.505Z,44
2023-03-17T07:52:12.260Z,53
2023-03-17T07:54:43.070Z,72
2023-03-17T07:57:12.757Z,55
2023-03-17T07:59:43.549Z,55
2023-03-17T08:02:14.945Z,59
2023-03-17T08:04:46.465Z,50
2023-03-17T08:07:17.062Z,59
2023-03-17T08:09:47.829Z,59
2023-03-17T08:12:18.426Z,60
2023-03-17T08:14:48.953Z,51
2023-03-17T08:17:29.231Z,43
2023-03-17T08:19:59.671Z,47
2023-03-17T08:22:31.385Z,81
2023-03-17T08:25:03.631Z,41
2023-03-17T08:27:37.327Z,39
2023-03-17T08:30:08.880Z,67
2023-03-17T08:32:39.502Z,69
2023-03-17T08:35:10.182Z,53
2023-03-17T08:37:40.441Z,52
2023-03-17T08:40:11.286Z,43
2023-03-17T08:42:41.774Z,49
2023-03-17T08:45:12.614Z,48
2023-03-17T08:47:43.262Z,56
2023-03-17T08:50:14.261Z,45
2023-03-17T08:52:43.575Z,42
2023-03-17T08:55:14.285Z,45
2023-03-17T08:57:45.132Z,45
2023-03-17T09:00:20.702Z,44
2023-03-17T09:02:51.548Z,44
2023-03-17T09:05:22.151Z,44
2023-03-17T09:07:54.855Z,47
2023-03-17T09:10:25.582Z,43
2023-03-17T09:12:57.585Z,47
2023-03-17T09:15:26.505Z,53
2023-03-17T09:17:56.698Z,53
2023-03-17T09:20:27.211Z,48
2023-03-17T09:22:57.844Z,47
2023-03-17T09:25:28.587Z,40
2023-03-17T09:27:59.128Z,45
2023-03-17T09:30:30.032Z,50
2023-03-17T09:33:04.137Z,40
2023-03-17T09:35:34.819Z,40
2023-03-17T09:38:13.975Z,44
2023-03-17T09:40:44.445Z,38
2023-03-17T09:43:21.475Z,56
2023-03-17T09:45:54.687Z,90
2023-03-17T09:48:25.296Z,118
2023-03-17T09:51:00.380Z,54
2023-03-17T09:53:31.860Z,43
2023-03-17T09:56:02.405Z,53
2023-03-17T09:58:32.560Z,42
2023-03-17T10:01:02.744Z,38
2023-03-17T10:03:35.450Z,42
2023-03-17T10:06:05.923Z,45
2023-03-17T10:08:36.120Z,45
2023-03-17T10:11:06.246Z,41
2023-03-17T10:13:36.825Z,40
2023-03-17T10:16:07.254Z,52
2023-03-17T10:18:39.118Z,41
2023-03-17T10:21:18.681Z,32
2023-03-17T10:23:48.827Z,41
2023-03-17T10:26:19.655Z,39
2023-03-17T10:28:49.688Z,35
2023-03-17T10:31:19.828Z,34
2023-03-17T10:33:50.288Z,43
2023-03-17T10:36:21.224Z,61
2023-03-17T10:38:52.598Z,36
2023-03-17T10:41:22.821Z,36
2023-03-17T10:43:52.852Z,40
2023-03-17T10:46:23.615Z,31
2023-03-17T10:48:53.851Z,29
2023-03-17T10:51:31.229Z,41
2023-03-17T10:54:01.605Z,32
2023-03-17T10:56:30.974Z,36
2023-03-17T10:59:01.241Z,39
2023-03-17T11:01:35.182Z,30
2023-03-17T11:04:05.578Z,38
2023-03-17T11:06:36.480Z,38
2023-03-17T11:09:09.377Z,23
2023-03-17T11:11:39.881Z,19
2023-03-17T11:14:08.736Z,27
2023-03-17T11:16:38.939Z,25
2023-03-17T11:19:07.836Z,25
2023-03-17T11:21:38.121Z,28
2023-03-17T11:24:08.510Z,29
2023-03-17T11:26:39.092Z,23
2023-03-17T11:29:09.439Z,41
2023-03-17T11:31:39.899Z,31
2023-03-17T11:34:10.505Z,48
2023-03-17T11:36:41.270Z,20
2023-03-17T11:39:13.909Z,20
2023-03-17T11:41:44.049Z,25
2023-03-17T11:44:19.595Z,17
2023-03-17T11:46:50.228Z,18
2023-03-17T11:49:20.272Z,20
2023-03-17T11:51:55.133Z,17
2023-03-17T11:54:24.307Z,20
2023-03-17T11:56:54.778Z,22
2023-03-17T11:59:25.748Z,20
2023-03-17T12:01:56.061Z,28
2023-03-17T12:04:26.340Z,25
2023-03-17T12:06:59.377Z,25
2023-03-17T12:09:30.619Z,20
2023-03-17T12:12:01.154Z,19
2023-03-17T12:14:33.170Z,163
2023-03-17T12:17:06.700Z,49
2023-03-17T12:19:37.770Z,32
2023-03-17T12:22:09.200Z,28
2023-03-17T12:24:43.303Z,28
2023-03-17T12:27:13.750Z,22
2023-03-17T12:29:45.529Z,20
2023-03-17T12:32:15.533Z,21
2023-03-17T12:34:45.716Z,31
2023-03-17T12:37:15.935Z,24
2023-03-17T12:39:45.240Z,24
2023-03-17T12:42:25.034Z,16
2023-03-17T12:44:58.272Z,24
2023-03-17T12:47:29.254Z,27
2023-03-17T12:50:00.546Z,24
2023-03-17T12:52:31.952Z,21
2023-03-17T12:55:02.536Z,23
2023-03-17T12:57:33.282Z,20
2023-03-17T13:00:07.266Z,12
2023-03-17T13:02:41.753Z,19
2023-03-17T13:05:12.819Z,20
2023-03-17T13:07:47.456Z,34
2023-03-17T13:10:18.308Z,39
2023-03-17T13:12:48.734Z,25
2023-03-17T13:15:19.782Z,22
2023-03-17T13:17:50.600Z,24
2023-03-17T13:20:23.299Z,21
2023-03-17T13:22:58.879Z,20
2023-03-17T13:25:29.547Z,24
2023-03-17T13:27:59.573Z,19
2023-03-17T13:30:30.789Z,18
2023-03-17T13:33:09.352Z,22
2023-03-17T13:35:42.310Z,27
2023-03-17T13:38:17.389Z,21
2023-03-17T13:40:53.972Z,20
2023-03-17T13:43:24.516Z,19
2023-03-17T13:45:56.053Z,22
2023-03-17T13:48:26.399Z,14
2023-03-17T13:50:59.785Z,22
2023-03-17T13:53:30.022Z,24
2023-03-17T13:56:01.101Z,18
2023-03-17T13:58:31.559Z,13
2023-03-17T14:01:02.380Z,18
2023-03-17T14:03:33.153Z,22
2023-03-17T14:06:07.709Z,24
2023-03-17T14:08:40.441Z,20
2023-03-17T14:11:10.878Z,14
2023-03-17T14:13:41.535Z,24
2023-03-17T14:16:15.157Z,20
2023-03-17T14:18:45.957Z,16
2023-03-17T14:21:16.473Z,20
2023-03-17T14:23:50.705Z,12
2023-03-17T14:26:21.704Z,22
2023-03-17T14:28:52.194Z,16
2023-03-17T14:31:22.027Z,19
2023-03-17T14:33:52.899Z,20
2023-03-17T14:36:24.685Z,28
2023-03-17T14:38:59.688Z,16
2023-03-17T14:41:33.498Z,32
2023-03-17T14:44:03.784Z,14
2023-03-17T14:46:34.022Z,23
2023-03-17T14:49:03.776Z,20
2023-03-17T14:51:34.136Z,16
2023-03-17T14:54:04.559Z,13
2023-03-17T14:56:36.033Z,18
2023-03-17T14:59:07.443Z,39
2023-03-17T15:01:37.566Z,16
2023-03-17T15:04:08.657Z,25
2023-03-17T15:06:38.974Z,46
2023-03-17T15:09:08.989Z,64
2023-03-17T15:11:39.508Z,71
2023-03-17T15:14:09.713Z,41
2023-03-17T15:16:40.291Z,56
2023-03-17T15:19:10.422Z,64
2023-03-17T15:21:42.141Z,61
2023-03-17T15:24:12.624Z,76
2023-03-17T15:26:45.252Z,28
2023-03-17T15:29:15.408Z,46
2023-03-17T15:31:45.789Z,88
2023-03-17T15:34:16.718Z,64
2023-03-17T15:36:46.964Z,39
2023-03-17T15:39:17.672Z,39
2023-03-17T15:41:48.115Z,36
2023-03-17T15:44:18.820Z,42
2023-03-17T15:46:49.003Z,37
2023-03-17T15:49:20.120Z,32
2023-03-17T15:51:50.262Z,32
2023-03-17T15:54:21.360Z,20
2023-03-17T15:56:51.604Z,32
2023-03-17T15:59:22.151Z,21
2023-03-17T16:01:53.238Z,24
2023-03-17T16:04:23.917Z,31
2023-03-17T16:06:56.901Z,21
2023-03-17T16:09:27.285Z,72
2023-03-17T16:12:09.957Z,56
2023-03-17T16:14:40.254Z,39
2023-03-17T16:17:10.262Z,33
2023-03-17T16:19:39.068Z,40
2023-03-17T16:22:12.641Z,46
2023-03-17T16:24:46.841Z,28
2023-03-17T16:27:18.584Z,36
2023-03-17T16:29:49.373Z,24
2023-03-17T16:32:19.766Z,40
2023-03-17T16:34:49.970Z,60
2023-03-17T16:37:25.696Z,57
2023-03-17T16:39:57.708Z,57
2023-03-17T16:42:27.634Z,40
2023-03-17T16:44:57.993Z,32
2023-03-17T16:47:29.500Z,28
2023-03-17T16:49:59.748Z,25
2023-03-17T16:52:30.226Z,33
2023-03-17T16:55:00.138Z,29
2023-03-17T16:57:34.902Z,16
2023-03-17T17:00:06.156Z,21
2023-03-17T17:02:39.921Z,16
2023-03-17T17:05:10.009Z,17
2023-03-17T17:07:44.498Z,24
2023-03-17T17:10:14.518Z,13
2023-03-17T17:12:44.688Z,20
2023-03-17T17:15:16.332Z,23
2023-03-17T17:17:47.881Z,15
2023-03-17T17:20:18.873Z,18
2023-03-17T17:22:48.955Z,19
2023-03-17T17:25:19.536Z,14
2023-03-17T17:27:50.055Z,16
2023-03-17T17:30:20.226Z,14
2023-03-17T17:32:50.513Z,23
2023-03-17T17:35:20.473Z,53
2023-03-17T17:37:54.429Z,70
2023-03-17T17:40:24.948Z,65
2023-03-17T17:42:55.193Z,64
2023-03-17T17:45:25.974Z,36
2023-03-17T17:47:56.824Z,42
2023-03-17T17:50:27.146Z,43
2023-03-17T17:53:00.624Z,54
2023-03-17T17:55:38.957Z,52
2023-03-17T17:58:09.159Z,56
2023-03-17T18:00:39.626Z,57
2023-03-17T18:03:19.527Z,65
2023-03-17T18:05:49.798Z,94
2023-03-17T18:08:20.033Z,97
2023-03-17T18:10:52.076Z,98
2023-03-17T18:13:20.670Z,88
2023-03-17T18:15:50.889Z,86
2023-03-17T18:18:22.238Z,92
2023-03-17T18:20:52.500Z,94
2023-03-17T18:23:27.362Z,99
2023-03-17T18:26:01.079Z,147
2023-03-17T18:28:31.936Z,181
2023-03-17T18:31:02.534Z,170
2023-03-17T18:33:33.190Z,157
2023-03-17T18:36:03.492Z,137
2023-03-17T18:38:35.792Z,113
2023-03-17T18:41:06.678Z,122
2023-03-17T18:43:37.115Z,124
2023-03-17T18:46:12.029Z,145
2023-03-17T18:48:47.493Z,147
2023-03-17T18:51:18.363Z,137
2023-03-17T18:53:49.715Z,140
2023-03-17T18:56:20.326Z,132
2023-03-17T18:58:54.410Z,129
2023-03-17T19:01:24.640Z,139
2023-03-17T19:03:54.947Z,126
2023-03-17T19:06:25.187Z,129
2023-03-17T19:08:57.391Z,143
2023-03-17T19:11:28.219Z,149
2023-03-17T19:13:58.502Z,158
2023-03-17T19:16:30.144Z,174
2023-03-17T19:19:01.853Z,154
2023-03-17T19:21:32.600Z,180
2023-03-17T19:24:04.979Z,179
2023-03-17T19:26:35.245Z,130
2023-03-17T19:29:06.631Z,148
2023-03-17T19:31:36.700Z,152
2023-03-17T19:34:07.181Z,149
2023-03-17T19:36:37.210Z,162
2023-03-17T19:39:17.696Z,160
2023-03-17T19:41:47.871Z,159
2023-03-17T19:44:18.153Z,157
2023-03-17T19:46:47.106Z,148
2023-03-17T19:49:17.102Z,139
2023-03-17T19:51:47.560Z,133
2023-03-17T19:54:18.004Z,137
2023-03-17T19:56:48.321Z,135
2023-03-17T19:59:18.716Z,126
2023-03-17T20:01:48.997Z,130
2023-03-17T20:04:19.307Z,144
2023-03-17T20:06:49.551Z,158
2023-03-17T20:09:19.881Z,152
2023-03-17T20:11:50.020Z,130
2023-03-17T20:14:20.386Z,146
2023-03-17T20:16:50.544Z,139
2023-03-17T20:19:20.789Z,157
2023-03-17T20:21:53.888Z,131
2023-03-17T20:24:24.528Z,154
2023-03-17T20:26:54.365Z,134
2023-03-17T20:29:24.722Z,142
2023-03-17T20:31:54.855Z,148
2023-03-17T20:34:25.110Z,130
2023-03-17T20:36:55.218Z,136
2023-03-17T20:39:25.627Z,126
2023-03-17T20:41:56.016Z,135
2023-03-17T20:44:26.056Z,122
2023-03-17T20:46:56.248Z,110
2023-03-17T20:49:26.493Z,129
2023-03-17T20:51:56.561Z,135
2023-03-17T20:54:26.840Z,133
2023-03-17T20:56:57.707Z,137
2023-03-17T20:59:28.625Z,120
2023-03-17T21:01:58.891Z,125
2023-03-17T21:04:29.237Z,117
2023-03-17T21:06:59.101Z,109
2023-03-17T21:09:29.497Z,114
2023-03-17T21:11:59.898Z,114
2023-03-17T21:14:29.876Z,109
2023-03-17T21:17:00.041Z,110
2023-03-17T21:19:31.376Z,112
2023-03-17T21:22:01.619Z,103
2023-03-17T21:24:31.894Z,104
2023-03-17T21:27:02.532Z,117
2023-03-17T21:29:32.596Z,120
2023-03-17T21:32:02.783Z,105
2023-03-17T21:34:32.918Z,109
2023-03-17T21:37:03.249Z,109
2023-03-17T21:39:33.265Z,115
2023-03-17T21:42:03.496Z,109
2023-03-17T21:44:34.122Z,117
2023-03-17T21:47:04.440Z,117
2023-03-17T21:49:34.902Z,115
2023-03-17T21:52:04.978Z,113
2023-03-17T21:54:35.581Z,109
2023-03-17T21:57:06.189Z,120
2023-03-17T21:59:36.528Z,120
2023-03-17T22:02:10.465Z,115
2023-03-17T22:04:40.522Z,120
2023-03-17T22:07:11.195Z,114
2023-03-17T22:09:41.842Z,121
2023-03-17T22:12:12.749Z,127
2023-03-17T22:14:42.635Z,117
2023-03-17T22:17:13.260Z,124
2023-03-17T22:19:43.409Z,111
2023-03-17T22:22:14.415Z,115
2023-03-17T22:24:46.448Z,118
2023-03-17T22:27:16.886Z,111
2023-03-17T22:29:47.789Z,118
2023-03-17T22:32:18.128Z,112
2023-03-17T22:34:48.635Z,112
2023-03-17T22:37:19.226Z,127
2023-03-17T22:39:51.746Z,112
2023-03-17T22:42:22.122Z,110
2023-03-17T22:44:52.832Z,103
2023-03-17T22:47:23.673Z,115
2023-03-17T22:49:54.055Z,125
2023-03-17T22:52:23.930Z,104
2023-03-17T22:54:54.233Z,108
2023-03-17T22:57:26.371Z,115
2023-03-17T22:59:56.593Z,128
2023-03-17T23:02:27.594Z,118
2023-03-17T23:04:58.357Z,112
2023-03-17T23:07:29.251Z,124
2023-03-17T23:09:59.956Z,147
2023-03-17T23:12:30.424Z,137
2023-03-17T23:15:01.474Z,135
2023-03-17T23:17:31.852Z,127
2023-03-17T23:20:02.412Z,116
2023-03-17T23:22:33.220Z,140
2023-03-17T23:25:03.660Z,151
2023-03-17T23:27:34.601Z,131
2023-03-17T23:30:04.530Z,139
2023-03-17T23:32:34.887Z,129
2023-03-17T23:35:05.500Z,131
2023-03-17T23:37:37.024Z,131
2023-03-17T23:40:08.101Z,140
2023-03-17T23:42:38.744Z,147
2023-03-17T23:45:09.377Z,150
2023-03-17T23:47:39.808Z,131
2023-03-17T23:50:10.718Z,132
2023-03-17T23:52:39.503Z,141
2023-03-17T23:55:09.735Z,132
2023-03-17T23:57:40.177Z,125
